createdAt,value
2022-12-06T00:00:34.334Z,21.1
2022-12-06T00:01:36.896Z,21.1
2022-12-06T00:02:39.307Z,21.1
2022-12-06T00:03:41.852Z,21.1
2022-12-06T00:04:44.702Z,21.1
2022-12-06T00:05:47.639Z,21.1
2022-12-06T00:06:50.117Z,21.1
2022-12-06T00:07:52.531Z,21.1
2022-12-06T00:08:55.126Z,21.1
2022-12-06T00:09:58.767Z,21.1
2022-12-06T00:11:02.229Z,21.1
2022-12-06T00:12:04.719Z,21.1
2022-12-06T00:13:06.930Z,21.2
2022-12-06T00:14:09.153Z,21.2
2022-12-06T00:15:11.676Z,21.2
2022-12-06T00:16:14.497Z,21.2
2022-12-06T00:17:16.827Z,21.2
2022-12-06T00:18:19.342Z,21.2
2022-12-06T00:19:21.538Z,21.2
2022-12-06T00:20:24.010Z,21.2
2022-12-06T00:21:26.936Z,21.2
2022-12-06T00:22:29.413Z,21.2
2022-12-06T00:23:32.831Z,21.3
2022-12-06T00:24:34.752Z,21.2
2022-12-06T00:25:37.002Z,21.3
2022-12-06T00:26:39.578Z,21.2
2022-12-06T00:27:41.777Z,21.2
2022-12-06T00:28:44.260Z,21.2
2022-12-06T00:29:46.746Z,21.2
2022-12-06T00:30:48.993Z,21.3
2022-12-06T00:31:51.939Z,21.3
2022-12-06T00:32:54.723Z,21.3
2022-12-06T00:33:57.198Z,21.3
2022-12-06T00:34:59.405Z,21.3
2022-12-06T00:36:01.602Z,21.3
2022-12-06T00:37:03.832Z,21.3
2022-12-06T00:38:06.046Z,21.3
2022-12-06T00:39:08.539Z,21.3
2022-12-06T00:40:10.745Z,21.4
2022-12-06T00:41:13.227Z,21.4
2022-12-06T00:42:15.702Z,21.4
2022-12-06T00:43:18.191Z,21.4
2022-12-06T00:44:20.106Z,21.4
2022-12-06T00:45:22.298Z,21.4
2022-12-06T00:46:25.086Z,21.4
2022-12-06T00:47:27.988Z,21.4
2022-12-06T00:48:29.898Z,21.4
2022-12-06T00:49:32.383Z,21.3
2022-12-06T00:50:34.873Z,21.3
2022-12-06T00:51:36.801Z,21.3
2022-12-06T00:52:39.301Z,21.3
2022-12-06T00:53:41.203Z,21.3
2022-12-06T00:54:43.696Z,21.3
2022-12-06T00:55:45.893Z,21.3
2022-12-06T00:56:48.376Z,21.3
2022-12-06T00:57:50.859Z,21.4
2022-12-06T00:58:53.346Z,21.4
2022-12-06T00:59:55.810Z,21.4
2022-12-06T01:00:58.734Z,21.4
2022-12-06T01:02:00.847Z,21.4
2022-12-06T01:03:03.609Z,21.4
2022-12-06T01:04:06.286Z,21.4
2022-12-06T01:05:08.777Z,21.4
2022-12-06T01:06:10.977Z,21.5
2022-12-06T01:07:13.466Z,21.5
2022-12-06T01:08:16.181Z,21.5
2022-12-06T01:09:19.065Z,21.5
2022-12-06T01:10:21.284Z,21.5
2022-12-06T01:11:23.493Z,21.5
2022-12-06T01:12:25.961Z,21.5
2022-12-06T01:13:28.198Z,21.4
2022-12-06T01:14:30.687Z,21.4
2022-12-06T01:15:33.164Z,21.4
2022-12-06T01:16:36.084Z,21.4
2022-12-06T01:17:38.731Z,21.4
2022-12-06T01:18:41.258Z,21.4
2022-12-06T01:19:43.780Z,21.4
2022-12-06T01:20:46.253Z,21.4
2022-12-06T01:21:48.461Z,21.4
2022-12-06T01:22:50.925Z,21.4
2022-12-06T01:23:53.145Z,21.5
2022-12-06T01:24:55.337Z,21.5
2022-12-06T01:25:57.542Z,21.5
2022-12-06T01:27:00.038Z,21.5
2022-12-06T01:28:02.513Z,21.5
2022-12-06T01:29:04.697Z,21.5
2022-12-06T01:30:07.185Z,21.5
2022-12-06T01:31:09.593Z,21.5
2022-12-06T01:32:11.993Z,21.5
2022-12-06T01:33:14.537Z,21.5
2022-12-06T01:34:17.062Z,21.5
2022-12-06T01:35:19.252Z,21.5
2022-12-06T01:36:21.198Z,21.5
2022-12-06T01:37:22.846Z,21.5
2022-12-06T01:38:24.476Z,21.5
2022-12-06T01:39:26.979Z,21.5
2022-12-06T01:40:29.471Z,21.5
2022-12-06T01:41:31.673Z,21.5
2022-12-06T01:42:33.590Z,21.5
2022-12-06T01:43:36.062Z,21.5
2022-12-06T01:44:38.539Z,21.5
2022-12-06T01:45:40.902Z,21.5
2022-12-06T01:46:43.417Z,21.5
2022-12-06T01:47:45.889Z,21.5
2022-12-06T01:48:48.152Z,21.5
2022-12-06T01:49:50.402Z,21.5
2022-12-06T01:50:52.885Z,21.5
2022-12-06T01:51:55.083Z,21.5
2022-12-06T01:52:57.562Z,21.5
2022-12-06T01:54:00.054Z,21.5
2022-12-06T01:55:02.633Z,21.5
2022-12-06T01:56:05.121Z,21.6
2022-12-06T01:57:07.310Z,21.6
2022-12-06T01:58:09.791Z,21.6
2022-12-06T01:59:12.275Z,21.6
2022-12-06T02:00:14.763Z,21.6
2022-12-06T02:01:16.955Z,21.5
2022-12-06T02:02:19.913Z,21.5
2022-12-06T02:03:22.567Z,21.5
2022-12-06T02:04:25.101Z,21.5
2022-12-06T02:05:27.355Z,21.5
2022-12-06T02:06:29.287Z,21.5
2022-12-06T02:07:31.572Z,21.5
2022-12-06T02:08:34.192Z,21.5
2022-12-06T02:09:35.596Z,21.5
2022-12-06T02:10:38.098Z,21.5
2022-12-06T02:11:40.344Z,21.5
2022-12-06T02:12:42.819Z,21.5
2022-12-06T02:13:45.304Z,21.5
2022-12-06T02:14:47.787Z,21.5
2022-12-06T02:15:49.990Z,21.5
2022-12-06T02:16:52.849Z,21.5
2022-12-06T02:17:55.580Z,21.5
2022-12-06T02:18:58.059Z,21.6
2022-12-06T02:20:01.539Z,21.6
2022-12-06T02:21:04.898Z,21.6
2022-12-06T02:22:07.368Z,21.6
2022-12-06T02:23:09.579Z,21.6
2022-12-06T02:24:11.795Z,21.6
2022-12-06T02:25:14.001Z,21.6
2022-12-06T02:26:16.506Z,21.6
2022-12-06T02:27:18.710Z,21.6
2022-12-06T02:28:20.904Z,21.6
2022-12-06T02:29:23.380Z,21.5
2022-12-06T02:30:25.579Z,21.5
2022-12-06T02:31:28.154Z,21.5
2022-12-06T02:32:30.973Z,21.5
2022-12-06T02:33:33.168Z,21.5
2022-12-06T02:34:35.366Z,21.5
2022-12-06T02:35:37.589Z,21.5
2022-12-06T02:36:40.093Z,21.5
2022-12-06T02:37:42.295Z,21.5
2022-12-06T02:38:44.776Z,21.5
2022-12-06T02:39:46.970Z,21.5
2022-12-06T02:40:49.444Z,21.6
2022-12-06T02:41:51.963Z,21.6
2022-12-06T02:42:53.624Z,21.6
2022-12-06T02:43:56.107Z,21.6
2022-12-06T02:44:58.303Z,21.6
2022-12-06T02:46:00.805Z,21.6
2022-12-06T02:47:03.481Z,21.6
2022-12-06T02:48:05.973Z,21.6
2022-12-06T02:49:08.185Z,21.6
2022-12-06T02:50:10.662Z,21.6
2022-12-06T02:51:13.183Z,21.6
2022-12-06T02:52:15.710Z,21.6
2022-12-06T02:53:18.192Z,21.6
2022-12-06T02:54:20.657Z,21.6
2022-12-06T02:55:22.865Z,21.6
2022-12-06T02:56:25.151Z,21.6
2022-12-06T02:57:27.667Z,21.5
2022-12-06T02:58:29.864Z,21.5
2022-12-06T02:59:31.771Z,21.5
2022-12-06T03:00:34.245Z,21.5
2022-12-06T03:01:36.684Z,21.6
2022-12-06T03:02:39.502Z,21.6
2022-12-06T03:03:42.200Z,21.6
2022-12-06T03:04:44.382Z,21.6
2022-12-06T03:05:46.852Z,21.6
2022-12-06T03:06:49.116Z,21.6
2022-12-06T03:07:51.821Z,21.6
2022-12-06T03:08:54.127Z,21.6
2022-12-06T03:09:56.332Z,21.6
2022-12-06T03:10:58.761Z,21.6
2022-12-06T03:12:01.263Z,21.7
2022-12-06T03:13:03.197Z,21.7
2022-12-06T03:14:06.417Z,21.7
2022-12-06T03:15:10.481Z,21.6
2022-12-06T03:16:12.906Z,21.6
2022-12-06T03:17:15.747Z,21.6
2022-12-06T03:18:18.228Z,21.6
2022-12-06T03:19:20.699Z,21.6
2022-12-06T03:20:22.903Z,21.6
2022-12-06T03:21:25.095Z,21.6
2022-12-06T03:22:27.329Z,21.6
2022-12-06T03:23:29.860Z,21.6
2022-12-06T03:24:32.324Z,21.6
2022-12-06T03:25:34.542Z,21.6
2022-12-06T03:26:36.849Z,21.6
2022-12-06T03:27:39.331Z,21.6
2022-12-06T03:28:41.818Z,21.6
2022-12-06T03:29:44.035Z,21.6
2022-12-06T03:30:46.731Z,21.6
2022-12-06T03:31:49.417Z,21.6
2022-12-06T03:32:51.598Z,21.6
2022-12-06T03:33:53.805Z,21.7
2022-12-06T03:34:56.026Z,21.7
2022-12-06T03:35:58.507Z,21.7
2022-12-06T03:37:00.688Z,21.7
2022-12-06T03:38:03.206Z,21.7
2022-12-06T03:39:05.723Z,21.7
2022-12-06T03:40:07.931Z,21.7
2022-12-06T03:41:10.427Z,21.7
2022-12-06T03:42:12.362Z,21.6
2022-12-06T03:43:14.574Z,21.6
2022-12-06T03:44:17.077Z,21.6
2022-12-06T03:45:19.578Z,21.6
2022-12-06T03:46:22.911Z,21.6
2022-12-06T03:47:25.669Z,21.6
2022-12-06T03:48:28.151Z,21.6
2022-12-06T03:49:30.640Z,21.6
2022-12-06T03:50:32.823Z,21.6
2022-12-06T03:51:35.033Z,21.6
2022-12-06T03:52:37.502Z,21.6
2022-12-06T03:53:39.745Z,21.6
2022-12-06T03:54:42.267Z,21.6
2022-12-06T03:55:43.892Z,21.6
2022-12-06T03:56:46.072Z,21.6
2022-12-06T03:57:48.558Z,21.6
2022-12-06T03:58:50.758Z,21.7
2022-12-06T03:59:53.250Z,21.7
2022-12-06T04:00:55.741Z,21.7
2022-12-06T04:01:58.380Z,21.7
2022-12-06T04:03:01.043Z,21.7
2022-12-06T04:04:03.825Z,21.7
2022-12-06T04:05:06.275Z,21.7
2022-12-06T04:06:08.755Z,21.6
2022-12-06T04:07:10.957Z,21.6
2022-12-06T04:08:12.827Z,21.6
2022-12-06T04:09:15.338Z,21.6
2022-12-06T04:10:17.865Z,21.6
2022-12-06T04:11:20.071Z,21.6
2022-12-06T04:12:22.554Z,21.5
2022-12-06T04:13:25.041Z,21.5
2022-12-06T04:14:27.245Z,21.5
2022-12-06T04:15:29.753Z,21.5
2022-12-06T04:16:31.783Z,21.5
2022-12-06T04:17:34.291Z,21.5
2022-12-06T04:18:36.757Z,21.5
2022-12-06T04:19:39.247Z,21.5
2022-12-06T04:20:41.744Z,21.5
2022-12-06T04:21:43.936Z,21.5
2022-12-06T04:22:46.415Z,21.5
2022-12-06T04:23:48.887Z,21.5
2022-12-06T04:24:51.403Z,21.5
2022-12-06T04:25:53.933Z,21.5
2022-12-06T04:26:56.414Z,21.5
2022-12-06T04:27:58.888Z,21.5
2022-12-06T04:29:01.362Z,21.4
2022-12-06T04:30:03.834Z,21.4
2022-12-06T04:31:06.606Z,21.4
2022-12-06T04:32:09.261Z,21.4
2022-12-06T04:33:11.464Z,21.4
2022-12-06T04:34:13.651Z,21.4
2022-12-06T04:35:15.863Z,21.4
2022-12-06T04:36:18.348Z,21.4
2022-12-06T04:37:20.574Z,21.4
2022-12-06T04:38:23.044Z,21.4
2022-12-06T04:39:25.529Z,21.4
2022-12-06T04:40:28.052Z,21.4
2022-12-06T04:41:30.576Z,21.4
2022-12-06T04:42:33.047Z,21.4
2022-12-06T04:43:35.249Z,21.4
2022-12-06T04:44:37.727Z,21.4
2022-12-06T04:45:39.919Z,21.4
2022-12-06T04:46:42.343Z,21.4
2022-12-06T04:47:44.762Z,21.4
2022-12-06T04:48:47.011Z,21.4
2022-12-06T04:49:48.960Z,21.4
2022-12-06T04:50:51.435Z,21.4
2022-12-06T04:51:53.929Z,21.4
2022-12-06T04:52:56.397Z,21.4
2022-12-06T04:53:58.873Z,21.4
2022-12-06T04:55:00.510Z,21.4
2022-12-06T04:56:03.033Z,21.4
2022-12-06T04:57:05.561Z,21.4
2022-12-06T04:58:08.043Z,21.4
2022-12-06T04:59:10.513Z,21.4
2022-12-06T05:00:12.713Z,21.4
2022-12-06T05:01:15.142Z,21.3
2022-12-06T05:02:17.950Z,21.3
2022-12-06T05:03:20.625Z,21.3
2022-12-06T05:04:23.521Z,21.3
2022-12-06T05:05:26.117Z,21.3
2022-12-06T05:06:28.589Z,21.3
2022-12-06T05:07:30.772Z,21.3
2022-12-06T05:08:33.491Z,21.3
2022-12-06T05:09:35.422Z,21.3
2022-12-06T05:10:37.626Z,21.3
2022-12-06T05:11:39.866Z,21.3
2022-12-06T05:12:43.168Z,21.3
2022-12-06T05:13:45.716Z,21.3
2022-12-06T05:14:48.193Z,21.3
2022-12-06T05:15:50.875Z,21.3
2022-12-06T05:16:53.560Z,21.3
2022-12-06T05:17:56.252Z,21.3
2022-12-06T05:18:58.485Z,21.3
2022-12-06T05:20:01.834Z,21.3
2022-12-06T05:21:04.734Z,21.3
2022-12-06T05:22:06.641Z,21.3
2022-12-06T05:23:08.828Z,21.3
2022-12-06T05:24:11.320Z,21.3
2022-12-06T05:25:13.564Z,21.3
2022-12-06T05:26:16.044Z,21.3
2022-12-06T05:27:18.302Z,21.3
2022-12-06T05:28:20.837Z,21.3
2022-12-06T05:29:23.042Z,21.2
2022-12-06T05:30:25.530Z,21.3
2022-12-06T05:31:27.893Z,21.3
2022-12-06T05:32:30.424Z,21.3
2022-12-06T05:33:32.921Z,21.3
2022-12-06T05:34:35.405Z,21.3
2022-12-06T05:35:37.886Z,21.3
2022-12-06T05:36:40.382Z,21.3
2022-12-06T05:37:42.563Z,21.3
2022-12-06T05:39:49.729Z,21.3
2022-12-06T05:40:51.915Z,21.2
2022-12-06T05:41:54.395Z,21.2
2022-12-06T05:42:56.369Z,21.2
2022-12-06T05:43:58.614Z,21.2
2022-12-06T05:45:00.820Z,21.2
2022-12-06T05:46:03.301Z,21.2
2022-12-06T05:47:06.023Z,21.2
2022-12-06T05:48:08.521Z,21.2
2022-12-06T05:49:10.743Z,21.2
2022-12-06T05:50:12.944Z,21.2
2022-12-06T05:51:15.416Z,21.2
2022-12-06T05:52:17.613Z,21.2
2022-12-06T05:53:20.188Z,21.2
2022-12-06T05:54:22.714Z,21.2
2022-12-06T05:55:24.950Z,21.2
2022-12-06T05:56:27.439Z,21.2
2022-12-06T05:57:29.921Z,21.2
2022-12-06T05:58:32.179Z,21.2
2022-12-06T05:59:34.688Z,21.2
2022-12-06T06:00:36.899Z,21.2
2022-12-06T06:01:39.667Z,21.2
2022-12-06T06:02:42.961Z,21.2
2022-12-06T06:04:50.999Z,21.2
2022-12-06T06:05:53.205Z,21.2
2022-12-06T06:06:55.421Z,21.2
2022-12-06T06:07:57.837Z,21.2
2022-12-06T06:09:00.258Z,21.2
2022-12-06T06:10:03.035Z,21.2
2022-12-06T06:11:05.325Z,21.2
2022-12-06T06:13:12.780Z,21.2
2022-12-06T06:14:15.305Z,21.2
2022-12-06T06:15:17.822Z,21.2
2022-12-06T06:16:20.313Z,21.2
2022-12-06T06:17:23.064Z,21.2
2022-12-06T06:18:25.563Z,21.2
2022-12-06T06:19:27.763Z,21.2
2022-12-06T06:20:30.253Z,21.2
2022-12-06T06:21:32.469Z,21.2
2022-12-06T06:22:34.369Z,21.2
2022-12-06T06:23:36.858Z,21.2
2022-12-06T06:24:39.345Z,21.2
2022-12-06T06:25:41.817Z,21.2
2022-12-06T06:26:44.028Z,21.2
2022-12-06T06:27:45.983Z,21.2
2022-12-06T06:28:48.201Z,21.2
2022-12-06T06:29:50.469Z,21.2
2022-12-06T06:30:52.998Z,21.2
2022-12-06T06:31:54.836Z,21.2
2022-12-06T06:32:57.251Z,21.2
2022-12-06T06:33:58.916Z,21.2
2022-12-06T06:35:01.447Z,21.2
2022-12-06T06:36:03.972Z,21.2
2022-12-06T06:37:06.546Z,21.2
2022-12-06T06:38:08.480Z,21.2
2022-12-06T06:39:10.686Z,21.2
2022-12-06T06:40:12.349Z,21.2
2022-12-06T06:41:14.556Z,21.2
2022-12-06T06:42:16.753Z,21.2
2022-12-06T06:43:19.516Z,21.2
2022-12-06T06:44:22.018Z,21.2
2022-12-06T06:46:29.689Z,21.2
2022-12-06T06:47:32.354Z,21.2
2022-12-06T06:48:34.550Z,21.2
2022-12-06T06:49:37.045Z,21.2
2022-12-06T06:50:39.254Z,21.2
2022-12-06T06:51:42.081Z,21.2
2022-12-06T06:52:44.283Z,21.2
2022-12-06T06:53:46.488Z,21.2
2022-12-06T06:54:48.981Z,21.2
2022-12-06T06:55:51.186Z,21.2
2022-12-06T06:56:53.406Z,21.2
2022-12-06T06:57:55.333Z,21.2
2022-12-06T06:58:57.803Z,21.2
2022-12-06T07:00:01.087Z,21.2
2022-12-06T07:01:05.004Z,21.2
2022-12-06T07:02:07.752Z,21.2
2022-12-06T07:03:10.437Z,21.2
2022-12-06T07:04:12.922Z,21.2
2022-12-06T07:05:15.398Z,21.1
2022-12-06T07:06:17.304Z,21.1
2022-12-06T07:08:24.489Z,21.2
2022-12-06T07:09:26.695Z,21.2
2022-12-06T07:10:28.899Z,21.2
2022-12-06T07:11:31.272Z,21.2
2022-12-06T07:12:33.759Z,21.2
2022-12-06T07:13:35.415Z,21.2
2022-12-06T07:14:37.624Z,21.1
2022-12-06T07:15:39.847Z,21.2
2022-12-06T07:16:42.023Z,21.2
2022-12-06T07:17:44.498Z,21.2
2022-12-06T07:18:47.122Z,21.1
2022-12-06T07:19:49.693Z,21.2
2022-12-06T07:20:52.174Z,21.2
2022-12-06T07:21:54.682Z,21.1
2022-12-06T07:22:57.218Z,21.1
2022-12-06T07:23:59.427Z,21.2
2022-12-06T07:25:01.624Z,21.2
2022-12-06T07:26:03.561Z,21.1
2022-12-06T07:27:06.060Z,21.1
2022-12-06T07:28:08.003Z,21.1
2022-12-06T07:29:10.211Z,21.2
2022-12-06T07:31:17.945Z,21.2
2022-12-06T07:32:20.069Z,21.1
2022-12-06T07:33:22.348Z,21.1
2022-12-06T07:34:24.626Z,21.1
2022-12-06T07:36:32.101Z,21.1
2022-12-06T07:37:33.200Z,21.1
2022-12-06T07:38:35.145Z,21.1
2022-12-06T07:39:37.638Z,21.1
2022-12-06T07:41:44.830Z,21.1
2022-12-06T07:42:47.343Z,21.1
2022-12-06T07:43:49.579Z,21.1
2022-12-06T07:45:57.211Z,21.1
2022-12-06T07:46:59.686Z,21.1
2022-12-06T07:48:02.169Z,21.1
2022-12-06T07:49:04.719Z,21.1
2022-12-06T07:50:07.645Z,21.1
2022-12-06T07:51:15.931Z,21.1
2022-12-06T07:52:18.123Z,21.1
2022-12-06T07:53:20.353Z,21.1
2022-12-06T07:54:22.588Z,21.1
2022-12-06T07:55:25.069Z,21.1
2022-12-06T07:56:27.274Z,21.1
2022-12-06T07:57:29.758Z,21.1
2022-12-06T07:58:32.294Z,21.1
2022-12-06T07:59:34.793Z,21.1
2022-12-06T08:00:37.279Z,21.1
2022-12-06T08:01:40.118Z,21.1
2022-12-06T08:02:42.641Z,21.1
2022-12-06T08:03:44.585Z,21.1
2022-12-06T08:04:47.404Z,21.1
2022-12-06T08:05:50.330Z,21.1
2022-12-06T08:06:52.514Z,21.1
2022-12-06T08:07:54.851Z,21.1
2022-12-06T08:08:57.028Z,21.1
2022-12-06T08:10:00.592Z,21.1
2022-12-06T08:11:04.022Z,21.1
2022-12-06T08:12:06.253Z,21.1
2022-12-06T08:13:08.778Z,21.1
2022-12-06T08:14:11.014Z,21.1
2022-12-06T08:15:13.540Z,21.1
2022-12-06T08:16:15.970Z,21.1
2022-12-06T08:17:18.453Z,21.1
2022-12-06T08:18:20.946Z,21.1
2022-12-06T08:19:23.150Z,21.1
2022-12-06T08:20:25.669Z,21.1
2022-12-06T08:21:28.087Z,21.1
2022-12-06T08:22:30.591Z,21.1
2022-12-06T08:24:38.043Z,21.1
2022-12-06T08:25:40.299Z,21.1
2022-12-06T08:26:42.506Z,21.1
2022-12-06T08:27:44.147Z,21.1
2022-12-06T08:28:46.350Z,21.1
2022-12-06T08:29:48.826Z,21.1
2022-12-06T08:30:51.551Z,21.1
2022-12-06T08:31:54.225Z,21.1
2022-12-06T08:32:56.447Z,21.1
2022-12-06T08:33:58.944Z,21.1
2022-12-06T08:35:00.891Z,21.1
2022-12-06T08:36:03.424Z,21.1
2022-12-06T08:37:05.419Z,21.1
2022-12-06T08:38:07.364Z,21.1
2022-12-06T08:39:09.848Z,21.1
2022-12-06T08:40:11.761Z,21.1
2022-12-06T08:41:14.272Z,21.1
2022-12-06T08:43:21.463Z,21.1
2022-12-06T08:44:23.681Z,21.1
2022-12-06T08:45:25.631Z,21.1
2022-12-06T08:46:28.326Z,21.1
2022-12-06T08:47:30.434Z,21.1
2022-12-06T08:48:32.653Z,21.1
2022-12-06T08:49:41.763Z,21.1
2022-12-06T08:50:43.421Z,21.1
2022-12-06T08:51:45.418Z,21.1
2022-12-06T08:52:47.974Z,21.1
2022-12-06T08:53:50.183Z,21.1
2022-12-06T08:54:52.398Z,21.1
2022-12-06T08:56:59.621Z,21.1
2022-12-06T08:58:01.281Z,21.1
2022-12-06T08:59:03.480Z,21.1
2022-12-06T09:00:05.981Z,21.1
2022-12-06T09:01:08.088Z,21.1
2022-12-06T09:02:10.692Z,21.1
2022-12-06T09:03:13.061Z,21.1
2022-12-06T09:04:15.554Z,21.1
2022-12-06T09:05:17.752Z,21.1
2022-12-06T09:06:20.256Z,21.1
2022-12-06T09:07:22.635Z,21.1
2022-12-06T09:08:25.147Z,21.1
2022-12-06T09:09:27.553Z,21.1
2022-12-06T09:10:30.049Z,21.1
2022-12-06T09:11:32.537Z,21.1
2022-12-06T09:12:35.050Z,21.1
2022-12-06T09:13:37.265Z,21.1
2022-12-06T09:14:39.471Z,21.1
2022-12-06T09:15:41.646Z,21.1
2022-12-06T09:16:43.499Z,21.1
2022-12-06T09:17:45.714Z,21.1
2022-12-06T09:18:48.198Z,21.1
2022-12-06T09:19:50.406Z,21.1
2022-12-06T09:20:52.368Z,21.1
2022-12-06T09:21:54.299Z,21.1
2022-12-06T09:22:56.837Z,21.1
2022-12-06T09:23:59.376Z,21.1
2022-12-06T09:25:01.887Z,21.1
2022-12-06T09:26:04.377Z,21.1
2022-12-06T09:27:06.599Z,21.1
2022-12-06T09:28:09.169Z,21.1
2022-12-06T09:29:11.381Z,21.1
2022-12-06T09:30:13.038Z,21.1
2022-12-06T09:31:15.744Z,21.1
2022-12-06T09:32:17.889Z,21.1
2022-12-06T09:33:20.386Z,21.1
2022-12-06T09:34:22.595Z,21.1
2022-12-06T09:35:26.335Z,21.1
2022-12-06T09:36:28.263Z,21.1
2022-12-06T09:37:30.179Z,21.1
2022-12-06T09:38:32.465Z,21.1
2022-12-06T09:39:34.793Z,21.1
2022-12-06T09:41:42.070Z,21.1
2022-12-06T09:42:44.314Z,21.1
2022-12-06T09:43:46.853Z,21.1
2022-12-06T09:44:49.095Z,21.1
2022-12-06T09:45:51.313Z,21.1
2022-12-06T09:46:53.871Z,21.1
2022-12-06T09:47:56.062Z,21.1
2022-12-06T09:48:58.606Z,21.1
2022-12-06T09:50:02.230Z,21.1
2022-12-06T09:51:05.372Z,21.1
2022-12-06T09:52:07.893Z,21.1
2022-12-06T09:53:10.109Z,21.1
2022-12-06T09:54:12.642Z,21.1
2022-12-06T09:55:15.181Z,21.1
2022-12-06T09:56:17.672Z,21.1
2022-12-06T09:57:19.875Z,21.1
2022-12-06T09:58:21.584Z,21.1
2022-12-06T09:59:24.096Z,21.1
2022-12-06T10:00:26.691Z,21.1
2022-12-06T10:01:29.380Z,21.1
2022-12-06T10:02:31.913Z,21.1
2022-12-06T10:03:34.591Z,21.1
2022-12-06T10:04:37.102Z,21.1
2022-12-06T10:05:39.600Z,21.1
2022-12-06T10:06:42.108Z,21.1
2022-12-06T10:07:45.069Z,21.1
2022-12-06T10:08:48.184Z,21.1
2022-12-06T10:09:51.042Z,21.1
2022-12-06T10:10:53.582Z,21.1
2022-12-06T10:11:55.796Z,21.1
2022-12-06T10:12:58.043Z,21.1
2022-12-06T10:14:00.537Z,21.1
2022-12-06T10:15:03.062Z,21.1
2022-12-06T10:16:05.433Z,21.1
2022-12-06T10:18:12.619Z,21.1
2022-12-06T10:19:14.842Z,21.1
2022-12-06T10:20:17.597Z,21.1
2022-12-06T10:21:20.091Z,21.1
2022-12-06T10:22:22.301Z,21.1
2022-12-06T10:23:24.805Z,21.1
2022-12-06T10:24:27.024Z,21.1
2022-12-06T10:25:29.592Z,21.1
2022-12-06T10:26:32.224Z,21.1
2022-12-06T10:27:34.434Z,21.1
2022-12-06T10:28:36.653Z,21.1
2022-12-06T10:29:39.153Z,21.1
2022-12-06T10:30:41.671Z,21.1
2022-12-06T10:31:44.335Z,21.1
2022-12-06T10:32:47.127Z,21.1
2022-12-06T10:33:49.627Z,21.1
2022-12-06T10:34:51.846Z,21.1
2022-12-06T10:35:53.759Z,21.1
2022-12-06T10:36:55.705Z,21.1
2022-12-06T10:37:57.923Z,21.1
2022-12-06T10:38:59.883Z,21.1
2022-12-06T10:40:03.255Z,21.1
2022-12-06T10:41:06.657Z,21.1
2022-12-06T10:42:09.190Z,21.1
2022-12-06T10:43:11.684Z,21.1
2022-12-06T10:44:14.178Z,21.1
2022-12-06T10:46:21.594Z,21.1
2022-12-06T10:47:23.667Z,21.1
2022-12-06T10:48:26.163Z,21.1
2022-12-06T10:49:28.358Z,21.1
2022-12-06T10:50:30.559Z,21.1
2022-12-06T10:51:33.040Z,21.1
2022-12-06T10:52:35.521Z,21.1
2022-12-06T10:53:38.005Z,21.1
2022-12-06T10:54:40.212Z,21.1
2022-12-06T10:55:42.410Z,21.1
2022-12-06T10:56:44.984Z,21.1
2022-12-06T10:57:47.527Z,21.1
2022-12-06T10:58:49.738Z,21.1
2022-12-06T10:59:51.948Z,21.1
2022-12-06T11:00:54.416Z,21.1
2022-12-06T11:01:57.298Z,21.1
2022-12-06T11:02:59.781Z,21.1
2022-12-06T11:04:02.327Z,21.1
2022-12-06T11:05:04.816Z,21.1
2022-12-06T11:06:06.750Z,21.1
2022-12-06T11:07:08.954Z,21.1
2022-12-06T11:08:11.780Z,21.1
2022-12-06T11:09:14.007Z,21.1
2022-12-06T11:10:16.483Z,21.1
2022-12-06T11:11:18.669Z,21.1
2022-12-06T11:12:21.942Z,21.1
2022-12-06T11:13:27.124Z,21.1
2022-12-06T11:14:29.647Z,21.1
2022-12-06T11:15:32.128Z,21.1
2022-12-06T11:16:34.880Z,21.1
2022-12-06T11:17:37.660Z,21.1
2022-12-06T11:18:39.675Z,21.1
2022-12-06T11:19:41.875Z,21.1
2022-12-06T11:20:44.363Z,21.1
2022-12-06T11:21:47.018Z,21.1
2022-12-06T11:22:49.517Z,21.1
2022-12-06T11:23:51.725Z,21.1
2022-12-06T11:24:54.208Z,21
2022-12-06T11:26:11.329Z,21
2022-12-06T11:27:13.813Z,21
2022-12-06T11:28:16.375Z,21
2022-12-06T11:29:18.316Z,21
2022-12-06T11:30:22.064Z,21
2022-12-06T11:31:24.764Z,21
2022-12-06T11:32:27.451Z,21
2022-12-06T11:33:29.952Z,21
2022-12-06T11:34:32.160Z,21
2022-12-06T11:35:34.367Z,21
2022-12-06T11:36:36.852Z,21
2022-12-06T11:38:44.022Z,21
2022-12-06T11:39:45.951Z,21
2022-12-06T11:40:48.432Z,21
2022-12-06T11:41:50.364Z,21
2022-12-06T11:42:52.864Z,21
2022-12-06T11:43:55.464Z,21
2022-12-06T11:44:57.960Z,21
2022-12-06T11:46:00.513Z,21
2022-12-06T11:47:03.128Z,21
2022-12-06T11:48:05.053Z,21
2022-12-06T11:49:07.844Z,21
2022-12-06T11:51:15.005Z,21
2022-12-06T11:52:17.503Z,21
2022-12-06T11:53:19.998Z,21
2022-12-06T11:54:21.941Z,21
2022-12-06T11:55:24.447Z,21
2022-12-06T11:56:26.650Z,21
2022-12-06T11:57:28.859Z,21
2022-12-06T11:58:31.043Z,21
2022-12-06T11:59:33.311Z,21
2022-12-06T12:00:35.224Z,21
2022-12-06T12:01:37.941Z,21
2022-12-06T12:02:40.983Z,21
2022-12-06T12:03:43.978Z,21
2022-12-06T12:04:46.592Z,21
2022-12-06T12:05:49.075Z,21
2022-12-06T12:06:50.993Z,21
2022-12-06T12:07:53.414Z,21
2022-12-06T12:08:56.057Z,21
2022-12-06T12:09:58.560Z,21
2022-12-06T12:11:00.777Z,21
2022-12-06T12:12:03.303Z,21
2022-12-06T12:13:06.539Z,21
2022-12-06T12:14:09.021Z,21
2022-12-06T12:15:11.573Z,21
2022-12-06T12:16:14.250Z,21
2022-12-06T12:17:16.960Z,21
2022-12-06T12:18:19.441Z,21
2022-12-06T12:19:21.941Z,21
2022-12-06T12:20:24.439Z,21
2022-12-06T12:21:26.367Z,21
2022-12-06T12:22:28.857Z,21
2022-12-06T12:23:31.327Z,21
2022-12-06T12:25:38.970Z,21
2022-12-06T12:26:41.459Z,21
2022-12-06T12:27:43.680Z,21
2022-12-06T12:28:46.168Z,21
2022-12-06T12:29:48.647Z,21
2022-12-06T12:30:50.878Z,21.1
2022-12-06T12:31:53.653Z,21.1
2022-12-06T12:32:56.409Z,21.1
2022-12-06T12:33:58.885Z,21.1
2022-12-06T12:35:02.275Z,21.1
2022-12-06T12:36:05.058Z,21.1
2022-12-06T12:37:06.713Z,21.1
2022-12-06T12:38:09.197Z,21.1
2022-12-06T12:39:11.692Z,21.1
2022-12-06T12:40:14.184Z,21.1
2022-12-06T12:41:16.540Z,21.1
2022-12-06T12:42:18.759Z,21.1
2022-12-06T12:43:21.035Z,21.1
2022-12-06T12:45:27.952Z,21.1
2022-12-06T12:46:30.747Z,21.1
2022-12-06T12:47:33.095Z,21.1
2022-12-06T12:48:35.616Z,21.1
2022-12-06T12:49:38.109Z,21.1
2022-12-06T12:50:40.635Z,21.1
2022-12-06T12:52:48.429Z,21.1
2022-12-06T12:53:51.504Z,21.1
2022-12-06T12:54:53.167Z,21.1
2022-12-06T12:55:55.665Z,21.1
2022-12-06T12:56:57.587Z,21.1
2022-12-06T12:57:59.790Z,21.1
2022-12-06T12:59:01.736Z,21.1
2022-12-06T13:00:03.948Z,21.1
2022-12-06T13:01:06.685Z,21.1
2022-12-06T13:02:09.447Z,21.1
2022-12-06T13:04:17.091Z,21.1
2022-12-06T13:06:24.635Z,21.1
2022-12-06T13:07:27.158Z,21.1
2022-12-06T13:08:29.639Z,21.1
2022-12-06T13:09:32.130Z,21.1
2022-12-06T13:10:34.610Z,21.1
2022-12-06T13:11:36.833Z,21.1
2022-12-06T13:12:39.324Z,21.1
2022-12-06T13:13:41.258Z,21.1
2022-12-06T13:14:43.201Z,21
2022-12-06T13:15:45.409Z,21.1
2022-12-06T13:16:48.167Z,21.1
2022-12-06T13:18:56.263Z,21.1
2022-12-06T13:19:58.745Z,21.1
2022-12-06T13:21:01.250Z,21.1
2022-12-06T13:22:03.775Z,21.1
2022-12-06T13:23:06.020Z,21.1
2022-12-06T13:24:08.215Z,21.1
2022-12-06T13:25:10.438Z,21.1
2022-12-06T13:26:12.655Z,21.1
2022-12-06T13:27:15.154Z,21.1
2022-12-06T13:28:17.357Z,21.1
2022-12-06T13:29:19.862Z,21.1
2022-12-06T13:30:22.292Z,21.1
2022-12-06T13:31:24.345Z,21.1
2022-12-06T13:32:26.961Z,21.1
2022-12-06T13:33:29.178Z,21.1
2022-12-06T13:35:36.131Z,21.1
2022-12-06T13:36:38.684Z,21.1
2022-12-06T13:37:40.905Z,21.1
2022-12-06T13:38:43.116Z,21.1
2022-12-06T13:39:45.329Z,21.1
2022-12-06T13:40:47.525Z,21.1
2022-12-06T13:41:49.465Z,21.1
2022-12-06T13:42:51.686Z,21.1
2022-12-06T13:43:54.180Z,21.1
2022-12-06T13:44:56.686Z,21.1
2022-12-06T13:45:59.071Z,21.1
2022-12-06T13:47:01.440Z,21.1
2022-12-06T13:48:03.375Z,21.1
2022-12-06T13:49:05.385Z,21.1
2022-12-06T13:50:08.169Z,21.1
2022-12-06T13:51:10.133Z,21
2022-12-06T13:52:12.696Z,21.1
2022-12-06T13:53:15.204Z,21.1
2022-12-06T13:54:17.732Z,21.1
2022-12-06T13:55:19.670Z,21.1
2022-12-06T13:56:21.622Z,21.1
2022-12-06T13:57:24.111Z,21.1
2022-12-06T13:58:26.665Z,21.1
2022-12-06T13:59:28.604Z,21.1
2022-12-06T14:00:30.850Z,21.1
2022-12-06T14:02:38.027Z,21.1
2022-12-06T14:03:40.711Z,21.1
2022-12-06T14:04:42.653Z,21.1
2022-12-06T14:05:45.167Z,21.1
2022-12-06T14:06:47.719Z,21.1
2022-12-06T14:07:50.522Z,21.1
2022-12-06T14:08:53.112Z,21.1
2022-12-06T14:09:55.093Z,21.1
2022-12-06T14:10:57.325Z,21.1
2022-12-06T14:11:59.272Z,21.1
2022-12-06T14:13:01.809Z,21.1
2022-12-06T14:14:04.033Z,21.1
2022-12-06T14:15:06.241Z,21.1
2022-12-06T14:16:08.447Z,21.1
2022-12-06T14:17:10.867Z,21
2022-12-06T14:18:18.069Z,21
2022-12-06T14:19:20.334Z,21
2022-12-06T14:20:22.613Z,21
2022-12-06T14:21:24.856Z,21
2022-12-06T14:22:27.161Z,21
2022-12-06T14:23:29.468Z,21